Time;durP1;ratioP1;P1;durP2;ratioP2;P2;SDS_P1;SDS_P2;PMS_P1;PMS_P2;Temp;Humidity;BMP_temperature;BMP_pressure;BME280_temperature;BME280_humidity;BME280_pressure;Samples;Min_cycle;Max_cycle;Signal;HPM_P1;HPM_P2
2022/02/12 00:00:06;;;;;;;8.85;6.20;;;;;;;4.20;70.08;100557.55;1792595;79;20967;-68
2022/02/12 00:02:35;;;;;;;8.75;6.10;;;;;;;4.13;70.27;100553.64;1792702;79;21094;-68
2022/02/12 00:05:03;;;;;;;7.87;5.45;;;;;;;4.08;70.50;100548.69;1792800;79;20996;-69
2022/02/12 00:07:30;;;;;;;8.78;6.03;;;;;;;4.05;70.67;100555.72;1792968;79;21541;-69
2022/02/12 00:09:56;;;;;;;8.75;6.00;;;;;;;3.98;70.83;100543.39;1793179;79;21118;-68
2022/02/12 00:12:23;;;;;;;8.35;6.20;;;;;;;3.93;71.01;100553.77;1792625;79;20987;-68
2022/02/12 00:14:52;;;;;;;9.20;6.25;;;;;;;3.93;71.12;100556.93;1792748;79;32450;-69
2022/02/12 00:17:20;;;;;;;10.70;5.83;;;;;;;3.98;71.23;100564.53;1792584;79;21042;-69
2022/02/12 00:19:46;;;;;;;8.78;5.97;;;;;;;4.05;71.25;100571.58;1792944;79;21089;-69
2022/02/12 00:22:13;;;;;;;9.95;6.67;;;;;;;4.09;71.22;100571.47;1792614;79;21500;-69
2022/02/12 00:24:40;;;;;;;10.40;7.28;;;;;;;4.11;71.18;100575.50;1792816;79;21043;-69
2022/02/12 00:27:07;;;;;;;11.57;7.58;;;;;;;4.16;71.14;100570.91;1792785;79;20956;-69
2022/02/12 00:29:33;;;;;;;11.88;7.00;;;;;;;4.20;71.14;100572.90;1792828;80;20980;-69
2022/02/12 00:32:00;;;;;;;12.03;8.05;;;;;;;4.27;71.06;100574.69;1793137;79;21503;-69
2022/02/12 00:34:26;;;;;;;13.83;8.95;;;;;;;4.30;70.97;100579.55;1792587;79;21120;-69
2022/02/12 00:36:53;;;;;;;14.15;9.80;;;;;;;4.28;70.91;100573.66;1793122;79;20988;-69
2022/02/12 00:39:20;;;;;;;14.45;9.45;;;;;;;4.26;70.89;100570.44;1792783;80;20955;-69
2022/02/12 00:41:46;;;;;;;15.13;9.70;;;;;;;4.20;70.82;100558.87;1792686;80;21578;-69
2022/02/12 00:44:13;;;;;;;16.07;10.63;;;;;;;4.11;70.77;100558.83;1792577;80;20971;-69
2022/02/12 00:46:40;;;;;;;22.80;14.10;;;;;;;3.96;70.89;100551.22;1792703;78;21066;-69
2022/02/12 00:49:06;;;;;;;16.27;9.68;;;;;;;3.81;71.11;100546.73;1792714;79;21018;-69
2022/02/12 00:51:33;;;;;;;14.00;8.43;;;;;;;3.74;71.34;100543.61;1788733;78;21027;-69
2022/02/12 00:54:02;;;;;;;12.55;7.80;;;;;;;3.63;71.58;100536.38;1792330;79;21502;-69
2022/02/12 00:56:29;;;;;;;11.73;7.67;;;;;;;3.51;71.82;100538.86;1792656;79;21550;-69
2022/02/12 00:58:56;;;;;;;11.25;7.25;;;;;;;3.42;72.08;100535.34;1792992;80;21540;-69
2022/02/12 01:01:24;;;;;;;12.58;7.80;;;;;;;3.37;72.34;100537.83;1792603;79;20987;-68
2022/02/12 01:03:51;;;;;;;13.62;7.53;;;;;;;3.27;72.57;100534.31;1792745;79;21435;-69
2022/02/12 01:06:18;;;;;;;12.23;7.37;;;;;;;3.19;72.78;100536.69;1792185;78;20992;-69
2022/02/12 01:08:46;;;;;;;10.53;6.85;;;;;;;3.09;73.07;100524.92;1792943;79;21019;-69
2022/02/12 01:11:13;;;;;;;9.83;6.58;;;;;;;2.99;73.34;100523.52;1792656;79;21544;-69
2022/02/12 01:13:41;;;;;;;9.25;6.50;;;;;;;2.94;73.54;100533.91;1792412;78;20971;-69
2022/02/12 01:16:08;;;;;;;9.70;6.45;;;;;;;2.92;73.74;100529.84;1792700;79;20995;-69
2022/02/12 01:18:35;;;;;;;9.95;6.67;;;;;;;2.93;73.94;100527.02;1792864;79;20971;-68
2022/02/12 01:21:02;;;;;;;10.23;6.95;;;;;;;2.94;74.04;100524.67;1792782;79;20983;-67
2022/02/12 01:23:29;;;;;;;11.35;7.30;;;;;;;2.94;74.24;100520.72;1792976;79;21098;-67
2022/02/12 01:25:56;;;;;;;10.45;6.55;;;;;;;2.92;74.33;100520.09;1792727;79;21059;-67
2022/02/12 01:28:24;;;;;;;10.03;6.78;;;;;;;2.95;74.49;100512.28;1792916;79;21456;-68
2022/02/12 01:30:50;;;;;;;10.30;6.62;;;;;;;2.91;74.55;100507.94;1792464;78;20999;-67
2022/02/12 01:33:17;;;;;;;8.70;5.95;;;;;;;2.89;74.70;100514.43;1792645;78;21011;-67
2022/02/12 01:35:44;;;;;;;9.80;6.42;;;;;;;2.89;74.90;100507.83;1793026;79;21519;-67
2022/02/12 01:38:11;;;;;;;8.18;6.12;;;;;;;2.93;74.97;100511.19;1778645;78;21043;-67
2022/02/12 01:40:38;;;;;;;8.43;6.20;;;;;;;2.95;75.02;100513.09;1760197;81;20984;-67
2022/02/12 01:43:07;;;;;;;9.60;5.75;;;;;;;2.95;75.14;100509.13;1767619;78;21451;-67
2022/02/12 01:45:34;;;;;;;8.23;5.78;;;;;;;2.98;75.21;100505.28;1793033;78;21051;-67
2022/02/12 01:48:01;;;;;;;8.30;5.80;;;;;;;2.99;75.21;100506.38;1793062;79;21094;-67
2022/02/12 01:50:28;;;;;;;7.70;5.35;;;;;;;3.01;75.27;100501.70;1792749;79;21478;-67
2022/02/12 01:52:54;;;;;;;9.18;6.53;;;;;;;3.02;75.29;100497.23;1792764;79;21093;-69
2022/02/12 01:55:21;;;;;;;7.95;6.05;;;;;;;2.98;75.34;100500.80;1793042;79;21677;-69
2022/02/12 01:57:47;;;;;;;8.45;6.12;;;;;;;2.99;75.44;100501.09;1792610;79;21517;-69
2022/02/12 02:00:17;;;;;;;8.98;6.15;;;;;;;3.01;75.53;100495.11;1793047;79;21060;-68
2022/02/12 02:02:44;;;;;;;8.63;6.83;;;;;;;3.01;75.60;100493.80;1823746;78;21528;-68
2022/02/12 02:05:13;;;;;;;10.70;6.70;;;;;;;3.02;75.62;100486.17;1824244;78;21568;-68
2022/02/12 02:07:41;;;;;;;9.53;7.00;;;;;;;3.00;75.68;100482.14;1790026;79;21030;-68
2022/02/12 02:10:10;;;;;;;9.93;6.83;;;;;;;3.00;75.78;100486.91;1790335;79;20983;-69
2022/02/12 02:12:36;;;;;;;9.18;6.60;;;;;;;3.01;75.82;100483.75;1789961;79;21297;-68
2022/02/12 02:15:04;;;;;;;10.32;6.58;;;;;;;3.04;75.87;100482.83;1790441;79;20940;-68
2022/02/12 02:17:31;;;;;;;8.98;6.17;;;;;;;3.04;75.87;100479.38;1789889;80;20987;-68
2022/02/12 02:20:00;;;;;;;7.95;6.40;;;;;;;3.03;75.92;100478.58;1785228;79;20976;-68
2022/02/12 02:25:41;;;;;;;9.78;7.15;;;;;;;3.07;76.01;100490.03;1671044;86;21480;-68
2022/02/12 02:28:07;;;;;;;10.82;7.37;;;;;;;3.07;76.02;100491.35;1674921;85;21006;-68
2022/02/12 02:30:35;;;;;;;10.20;7.65;;;;;;;3.05;76.03;100493.67;1630046;86;21026;-67
2022/02/12 02:33:04;;;;;;;9.53;6.83;;;;;;;3.03;76.02;100495.73;1626200;88;21105;-69
2022/02/12 02:35:32;;;;;;;10.23;6.65;;;;;;;3.03;76.09;100489.64;1652260;86;21497;-69
2022/02/12 02:38:06;;;;;;;11.33;7.22;;;;;;;3.03;76.14;100493.09;1651850;86;21183;-69
2022/02/12 02:40:35;;;;;;;9.15;6.37;;;;;;;3.00;76.17;100504.05;1626149;88;20962;-69
2022/02/12 02:43:02;;;;;;;8.48;5.85;;;;;;;2.99;76.25;100506.89;1651989;86;21042;-68
2022/02/12 02:45:30;;;;;;;8.78;6.67;;;;;;;2.99;76.35;100512.97;1670120;84;21030;-68
2022/02/12 02:48:01;;;;;;;10.98;7.42;;;;;;;3.02;76.39;100518.34;1651409;87;21643;-69
2022/02/12 02:56:02;;;;;;;8.98;6.65;;;;;;;3.06;76.37;100527.49;1668042;86;21019;-68
2022/02/12 02:58:40;;;;;;;10.05;7.45;;;;;;;3.07;76.33;100525.66;1680303;85;21022;-68
2022/02/12 03:01:15;;;;;;;8.95;6.72;;;;;;;3.00;76.31;100525.68;1651430;86;21082;-68
2022/02/12 03:03:46;;;;;;;8.23;6.45;;;;;;;2.95;76.30;100528.12;1651445;87;21145;-68
2022/02/12 03:06:14;;;;;;;9.10;6.42;;;;;;;2.94;76.37;100519.39;1650562;86;20975;-68
2022/02/12 03:08:40;;;;;;;8.20;6.00;;;;;;;2.98;76.45;100532.47;1677912;85;21101;-68
2022/02/12 03:11:08;;;;;;;7.17;5.85;;;;;;;3.00;76.34;100529.13;1678291;85;21039;-68
2022/02/12 03:13:38;;;;;;;7.42;5.67;;;;;;;3.01;76.31;100539.16;1651467;87;21018;-68
2022/02/12 03:16:08;;;;;;;7.87;5.65;;;;;;;3.00;76.26;100552.87;1651553;86;21090;-68
2022/02/12 03:18:41;;;;;;;6.53;5.00;;;;;;;2.99;76.26;100554.38;1651304;87;21080;-67
2022/02/12 03:21:08;;;;;;;6.58;4.87;;;;;;;2.96;76.26;100560.91;1651608;86;20994;-67
2022/02/12 03:23:35;;;;;;;6.78;5.35;;;;;;;2.92;76.24;100573.38;1651457;87;21043;-66
2022/02/12 03:26:02;;;;;;;6.47;5.17;;;;;;;2.87;76.32;100570.05;1678034;85;21025;-67
2022/02/12 03:28:29;;;;;;;6.47;4.80;;;;;;;2.85;76.38;100576.03;1677936;85;21098;-67
2022/02/12 03:30:56;;;;;;;6.12;4.40;;;;;;;2.84;76.44;100586.80;1668030;86;21039;-68
2022/02/12 03:33:22;;;;;;;5.50;4.00;;;;;;;2.83;76.51;100599.18;1680387;85;20974;-67
2022/02/12 03:35:49;;;;;;;4.67;3.52;;;;;;;2.82;76.53;100601.49;1651574;87;21024;-67
2022/02/12 03:38:20;;;;;;;4.85;3.27;;;;;;;2.81;76.55;100603.84;1677826;85;21429;-67
2022/02/12 03:40:49;;;;;;;5.97;3.80;;;;;;;2.81;76.56;100607.80;1677981;85;21075;-67
2022/02/12 03:43:17;;;;;;;4.85;3.05;;;;;;;2.78;76.59;100604.24;1651294;85;20971;-67
2022/02/12 03:45:44;;;;;;;5.25;3.60;;;;;;;2.76;76.69;100612.86;1677982;85;21022;-67
2022/02/12 03:48:13;;;;;;;3.70;2.67;;;;;;;2.73;76.74;100619.38;1678223;85;21548;-68
2022/02/12 03:50:40;;;;;;;4.75;2.67;;;;;;;2.73;76.84;100628.61;1652259;86;21019;-67
2022/02/12 03:53:07;;;;;;;4.37;2.60;;;;;;;2.73;76.93;100639.16;1641480;86;21131;-68
2022/02/12 03:55:40;;;;;;;4.30;2.50;;;;;;;2.74;76.97;100651.32;1626870;86;21030;-68
2022/02/12 03:58:11;;;;;;;2.72;1.90;;;;;;;2.73;77.01;100654.98;1651869;86;21144;-68
2022/02/12 04:00:39;;;;;;;2.80;2.10;;;;;;;2.72;77.09;100665.20;1651995;86;21078;-67
2022/02/12 04:03:06;;;;;;;2.83;2.00;;;;;;;2.70;77.14;100667.25;1651792;86;21188;-67
2022/02/12 04:05:34;;;;;;;2.87;1.82;;;;;;;2.68;77.21;100677.69;1642086;87;21447;-68
2022/02/12 04:08:03;;;;;;;3.25;1.80;;;;;;;2.67;77.30;100675.56;1654140;86;20954;-68
2022/02/12 04:10:32;;;;;;;3.60;2.17;;;;;;;2.67;77.37;100685.30;1652062;86;21462;-67
2022/02/12 04:12:59;;;;;;;3.25;1.87;;;;;;;2.62;77.44;100695.13;1651742;86;21033;-67
2022/02/12 04:15:26;;;;;;;3.80;2.35;;;;;;;2.59;77.58;100706.06;1642163;87;21102;-68
2022/02/12 04:17:53;;;;;;;2.87;2.17;;;;;;;2.58;77.74;100710.53;1654251;86;21147;-68
2022/02/12 04:20:26;;;;;;;4.05;2.50;;;;;;;2.61;77.81;100715.11;1651766;86;21112;-68
2022/02/12 04:22:54;;;;;;;3.50;2.22;;;;;;;2.62;77.88;100729.91;1651705;86;21014;-68
2022/02/12 04:25:22;;;;;;;3.00;1.92;;;;;;;2.62;77.89;100739.95;1642063;87;21629;-68
2022/02/12 04:27:50;;;;;;;3.62;1.98;;;;;;;2.64;77.92;100742.41;1654199;86;21038;-68
2022/02/12 04:30:16;;;;;;;3.67;2.00;;;;;;;2.62;77.94;100745.73;1626189;88;21563;-69
2022/02/12 04:32:44;;;;;;;3.20;2.00;;;;;;;2.58;77.97;100752.72;1651704;86;21006;-68
2022/02/12 04:35:13;;;;;;;2.65;1.70;;;;;;;2.58;78.04;100754.05;1651949;86;21005;-68
2022/02/12 04:37:40;;;;;;;3.65;1.70;;;;;;;2.57;78.09;100760.34;1626130;87;21045;-68
2022/02/12 04:40:07;;;;;;;2.98;1.80;;;;;;;2.59;78.09;100760.94;1626319;88;21076;-68
2022/02/12 04:42:34;;;;;;;3.98;2.47;;;;;;;2.60;78.11;100772.32;1642702;85;21157;-68
2022/02/12 04:45:01;;;;;;;4.42;2.60;;;;;;;2.62;78.11;100780.02;1651557;87;21026;-68
2022/02/12 04:47:29;;;;;;;4.25;2.72;;;;;;;2.63;78.11;100784.27;1677786;85;21106;-68
2022/02/12 04:49:56;;;;;;;4.17;2.58;;;;;;;2.62;78.11;100801.92;1677948;85;21058;-68
2022/02/12 04:52:24;;;;;;;4.55;2.87;;;;;;;2.63;78.13;100796.14;1651607;86;21027;-68
2022/02/12 04:54:51;;;;;;;3.83;2.50;;;;;;;2.64;78.18;100814.92;1651605;87;21530;-68
2022/02/12 04:57:19;;;;;;;4.10;2.72;;;;;;;2.66;78.19;100812.89;1678203;85;21529;-68
2022/02/12 04:59:47;;;;;;;5.60;3.45;;;;;;;2.68;78.23;100826.70;1678090;85;21114;-68
2022/02/12 05:02:15;;;;;;;5.45;4.03;;;;;;;2.68;78.15;100832.78;1666394;86;21042;-68
2022/02/12 05:04:42;;;;;;;6.85;4.55;;;;;;;2.67;78.15;100840.91;1682028;85;20978;-69
2022/02/12 05:07:09;;;;;;;6.60;4.70;;;;;;;2.65;78.12;100845.55;1653211;86;21497;-68
2022/02/12 05:09:38;;;;;;;6.17;4.08;;;;;;;2.62;78.13;100842.80;1626867;86;21006;-68
2022/02/12 05:12:06;;;;;;;7.03;4.60;;;;;;;2.58;78.16;100856.89;1626176;88;20989;-68
2022/02/12 05:14:35;;;;;;;7.10;4.45;;;;;;;2.56;78.20;100863.36;1632226;86;21026;-68
2022/02/12 05:17:04;;;;;;;6.30;4.10;;;;;;;2.53;78.20;100863.27;1652106;86;21101;-68
2022/02/12 05:19:31;;;;;;;6.62;4.10;;;;;;;2.55;78.24;100883.64;1651941;86;21551;-67
2022/02/12 05:21:57;;;;;;;6.85;4.00;;;;;;;2.54;78.27;100883.86;1654284;86;21646;-68
2022/02/12 05:24:24;;;;;;;6.92;4.00;;;;;;;2.51;78.30;100886.38;1652237;85;21109;-68
2022/02/12 05:26:52;;;;;;;7.30;3.55;;;;;;;2.48;78.35;100897.31;1679439;85;20975;-67
2022/02/12 05:29:20;;;;;;;8.25;3.27;;;;;;;2.51;78.39;100915.88;1657349;85;20983;-68
2022/02/12 05:31:47;;;;;;;5.35;3.12;;;;;;;2.51;78.43;100914.06;1654337;86;22215;-68
2022/02/12 05:34:13;;;;;;;5.30;2.90;;;;;;;2.49;78.45;100925.29;1626477;88;21584;-68
2022/02/12 05:36:40;;;;;;;3.98;2.47;;;;;;;2.48;78.49;100931.58;1626842;86;21034;-68
2022/02/12 05:39:09;;;;;;;5.00;2.77;;;;;;;2.50;78.52;100934.01;1626085;88;21038;-67
2022/02/12 05:41:38;;;;;;;3.52;2.00;;;;;;;2.50;78.54;100941.44;1647291;85;21023;-67
2022/02/12 05:44:05;;;;;;;4.22;2.30;;;;;;;2.51;78.57;100948.84;1659403;85;21193;-69
2022/02/12 05:46:34;;;;;;;3.67;1.90;;;;;;;2.51;78.56;100961.52;1651968;86;20970;-67
2022/02/12 05:49:01;;;;;;;3.65;2.00;;;;;;;2.49;78.56;100964.84;1641987;87;20983;-67
2022/02/12 05:51:31;;;;;;;3.55;1.80;;;;;;;2.49;78.57;100970.62;1654352;86;21073;-67
2022/02/12 05:54:00;;;;;;;2.80;1.60;;;;;;;2.50;78.59;100978.36;1626612;88;21544;-67
2022/02/12 05:56:30;;;;;;;4.00;1.90;;;;;;;2.53;78.62;100982.41;1626538;88;21038;-67
2022/02/12 05:58:56;;;;;;;2.80;1.65;;;;;;;2.55;78.62;100986.99;1627034;86;21414;-68
2022/02/12 06:01:24;;;;;;;3.42;1.70;;;;;;;2.56;78.59;100986.78;1626616;88;21077;-67
2022/02/12 06:03:50;;;;;;;4.03;1.80;;;;;;;2.59;78.55;101000.91;1626158;88;21052;-68
2022/02/12 06:06:17;;;;;;;3.05;1.62;;;;;;;2.62;78.55;101002.86;1626310;88;21089;-68
2022/02/12 06:08:45;;;;;;;3.40;1.90;;;;;;;2.65;78.55;101016.47;1651575;86;21544;-68
2022/02/12 06:11:11;;;;;;;3.20;1.57;;;;;;;2.68;78.50;101022.68;1651938;86;21074;-67
2022/02/12 06:13:38;;;;;;;3.47;1.70;;;;;;;2.70;78.48;101025.95;1626198;88;21616;-67
2022/02/12 06:16:05;;;;;;;3.00;1.80;;;;;;;2.72;78.45;101031.83;1626122;88;21125;-68
2022/02/12 06:18:33;;;;;;;2.92;1.70;;;;;;;2.78;78.43;101035.52;1626268;88;21506;-67
2022/02/12 06:21:06;;;;;;;2.77;1.50;;;;;;;2.84;78.40;101040.03;1651922;86;21477;-67
2022/02/12 06:23:31;;;;;;;3.42;1.80;;;;;;;2.88;78.27;101043.09;1651717;86;21003;-67
2022/02/12 06:25:58;;;;;;;2.75;1.60;;;;;;;2.87;78.14;101044.11;1626297;88;21110;-68
2022/02/12 06:28:25;;;;;;;3.33;1.65;;;;;;;2.89;78.14;101050.80;1651810;86;21120;-67
2022/02/12 06:30:51;;;;;;;2.65;1.72;;;;;;;2.93;78.09;101067.05;1652129;86;21548;-67
2022/02/12 06:33:20;;;;;;;2.85;1.87;;;;;;;2.93;77.98;101061.78;1663770;85;21568;-68
2022/02/12 06:35:47;;;;;;;3.40;1.80;;;;;;;2.95;77.97;101071.64;1669298;86;21050;-67
2022/02/12 06:38:15;;;;;;;3.22;1.57;;;;;;;2.97;77.96;101074.91;1681684;85;21105;-68
2022/02/12 06:40:42;;;;;;;3.20;1.90;;;;;;;3.01;77.94;101074.83;1652914;85;21097;-67
2022/02/12 06:43:09;;;;;;;3.30;2.00;;;;;;;3.04;77.91;101077.89;1624870;88;21002;-68
2022/02/12 06:45:39;;;;;;;3.85;2.10;;;;;;;3.09;77.85;101081.77;1695893;84;21125;-68
2022/02/12 06:48:05;;;;;;;3.80;2.40;;;;;;;3.16;77.85;101082.14;1676410;85;21112;-69
2022/02/12 06:50:35;;;;;;;4.00;2.70;;;;;;;3.25;77.93;101085.41;1698554;84;21016;-68
2022/02/12 06:53:02;;;;;;;4.25;2.80;;;;;;;3.38;77.91;101089.44;1676224;85;21547;-67
2022/02/12 06:55:31;;;;;;;5.78;3.10;;;;;;;3.48;77.80;101098.31;1698647;84;21514;-69
2022/02/12 06:58:00;;;;;;;4.75;3.37;;;;;;;3.57;77.76;101098.46;1676104;85;21117;-68
2022/02/12 07:00:28;;;;;;;5.97;4.03;;;;;;;3.67;77.72;101105.50;1698714;84;21027;-69
2022/02/12 07:02:54;;;;;;;7.15;5.12;;;;;;;3.75;77.56;101120.36;1676389;85;21033;-68
2022/02/12 07:05:21;;;;;;;6.37;4.87;;;;;;;3.78;77.21;101120.48;1698992;84;20991;-68
2022/02/12 07:07:50;;;;;;;10.63;6.60;;;;;;;3.74;76.99;101126.66;1676253;85;21555;-69
2022/02/12 07:10:17;;;;;;;7.95;6.10;;;;;;;3.75;76.95;101130.92;1699089;84;22148;-68
2022/02/12 07:12:45;;;;;;;5.95;4.22;;;;;;;3.79;76.89;101139.30;1676101;85;21638;-69
2022/02/12 07:15:11;;;;;;;6.25;3.70;;;;;;;3.82;76.74;101139.72;1698728;84;21542;-68
2022/02/12 07:17:41;;;;;;;4.92;3.17;;;;;;;3.82;76.61;101142.36;1676190;85;21028;-69
2022/02/12 07:20:11;;;;;;;4.92;3.30;;;;;;;3.82;76.44;101151.61;1698786;84;21062;-68
2022/02/12 07:22:40;;;;;;;6.37;3.77;;;;;;;3.78;76.28;101152.99;1676389;85;21127;-68
2022/02/12 07:25:08;;;;;;;5.55;3.50;;;;;;;3.73;76.13;101164.16;1676904;84;21693;-69
2022/02/12 07:27:38;;;;;;;6.15;4.15;;;;;;;3.70;76.01;101171.67;1627766;86;21072;-68
2022/02/12 07:30:07;;;;;;;6.25;4.22;;;;;;;3.68;76.09;101173.68;1651978;86;21014;-68
2022/02/12 07:32:37;;;;;;;6.97;3.90;;;;;;;3.70;76.18;101182.23;1651471;86;21112;-68
2022/02/12 07:35:06;;;;;;;6.05;4.08;;;;;;;3.73;76.17;101180.02;1654138;86;21149;-68
2022/02/12 07:37:33;;;;;;;5.55;4.10;;;;;;;3.76;76.17;101190.70;1643232;85;21106;-67
2022/02/12 07:40:01;;;;;;;5.17;3.40;;;;;;;3.79;76.14;101193.47;1707918;84;20978;-68
2022/02/12 07:42:29;;;;;;;5.40;3.87;;;;;;;3.81;76.09;101194.88;1707911;84;21105;-67
2022/02/12 07:44:56;;;;;;;6.50;4.37;;;;;;;3.82;75.95;101204.45;1697306;84;21035;-67
2022/02/12 07:47:23;;;;;;;6.22;3.85;;;;;;;3.86;75.88;101204.88;1710422;83;21933;-68
2022/02/12 07:49:51;;;;;;;6.30;4.20;;;;;;;3.88;75.79;101213.41;1707699;84;21021;-68
2022/02/12 07:52:18;;;;;;;6.72;4.05;;;;;;;3.91;75.72;101215.66;1707942;84;21093;-68
2022/02/12 07:54:45;;;;;;;5.80;4.28;;;;;;;3.98;75.55;101220.46;1697165;84;20988;-67
2022/02/12 07:57:11;;;;;;;5.92;4.08;;;;;;;4.03;75.35;101235.75;1710779;83;21064;-67
2022/02/12 07:59:43;;;;;;;7.15;4.22;;;;;;;4.06;75.11;101229.56;1680214;85;21218;-68
2022/02/12 08:02:10;;;;;;;;;;;;;;;4.14;75.03;101227.24;1683009;85;21054;-69
2022/02/12 08:04:37;;;;;;;7.35;4.45;;;;;;;4.22;74.66;101231.05;1680316;85;20220;-67
2022/02/12 08:09:49;;;;;;;7.22;4.28;;;;;;;4.27;74.13;101237.05;1680705;85;21059;-69
2022/02/12 08:12:18;;;;;;;7.03;4.80;;;;;;;4.34;73.95;101235.24;1707910;84;21519;-68
2022/02/12 08:14:48;;;;;;;7.15;4.25;;;;;;;4.36;73.74;101241.97;1707831;84;21037;-68
2022/02/12 08:17:17;;;;;;;5.30;3.40;;;;;;;4.39;73.70;101240.77;1680169;85;21605;-68
2022/02/12 08:19:45;;;;;;;6.15;3.90;;;;;;;4.42;73.34;101246.47;1707785;84;21517;-68
2022/02/12 08:22:12;;;;;;;7.22;4.10;;;;;;;4.49;73.49;101254.42;1707910;84;21073;-68
2022/02/12 08:24:41;;;;;;;6.00;3.83;;;;;;;4.55;73.22;101264.72;1674507;85;21122;-68
2022/02/12 08:27:10;;;;;;;8.63;4.15;;;;;;;4.55;72.75;101260.23;1652520;86;21554;-68
2022/02/12 08:29:40;;;;;;;7.42;4.00;;;;;;;4.54;72.56;101262.59;1679507;85;21473;-68
2022/02/12 08:32:08;;;;;;;9.40;4.50;;;;;;;4.56;72.08;101267.16;1679441;85;21113;-67
2022/02/12 08:34:35;;;;;;;6.17;3.95;;;;;;;4.56;71.73;101275.09;1644770;86;21073;-67
2022/02/12 08:37:04;;;;;;;7.42;4.30;;;;;;;4.56;71.51;101283.54;1669491;85;21159;-68
2022/02/12 08:39:31;;;;;;;8.50;5.33;;;;;;;4.54;71.43;101290.37;1649937;86;21152;-70
2022/02/12 08:41:57;;;;;;;9.68;5.85;;;;;;;4.54;71.43;101304.08;1642051;87;21493;-67
2022/02/12 08:44:25;;;;;;;9.63;5.70;;;;;;;4.51;71.50;101304.47;1654499;85;21080;-67
2022/02/12 08:46:53;;;;;;;8.90;5.70;;;;;;;4.47;71.49;101305.38;1654212;85;21025;-67
2022/02/12 08:49:20;;;;;;;7.85;5.50;;;;;;;4.45;71.51;101314.84;1654124;86;21162;-67
2022/02/12 08:51:47;;;;;;;7.65;4.70;;;;;;;4.43;71.40;101320.83;1654544;85;21060;-67
2022/02/12 08:54:14;;;;;;;8.10;5.08;;;;;;;4.40;71.28;101337.60;1654754;85;21029;-68
2022/02/12 08:56:44;;;;;;;9.25;4.70;;;;;;;4.38;71.12;101331.20;1641775;87;21102;-68
2022/02/12 08:59:11;;;;;;;7.70;5.00;;;;;;;4.38;71.17;101340.97;1654587;84;21506;-67
2022/02/12 09:01:40;;;;;;;7.58;5.47;;;;;;;4.35;71.09;101348.78;1651888;86;21176;-67
2022/02/12 09:04:10;;;;;;;12.13;6.58;;;;;;;4.37;71.22;101352.03;1653997;85;21038;-68
2022/02/12 09:06:38;;;;;;;7.95;5.70;;;;;;;4.37;71.28;101357.32;1626089;88;21034;-68
2022/02/12 09:09:08;;;;;;;8.35;5.30;;;;;;;4.39;71.24;101369.85;1626383;88;21002;-68
2022/02/12 09:11:38;;;;;;;7.22;4.78;;;;;;;4.40;71.12;101382.05;1651790;86;21004;-68
2022/02/12 09:14:05;;;;;;;8.45;4.53;;;;;;;4.36;70.86;101380.01;1651794;86;21815;-68
2022/02/12 09:16:34;;;;;;;9.25;4.20;;;;;;;4.30;70.64;101385.56;1641864;87;20979;-68
2022/02/12 09:19:01;;;;;;;7.40;4.12;;;;;;;4.29;70.48;101389.23;1654200;85;21113;-68
2022/02/12 09:21:28;;;;;;;6.22;3.90;;;;;;;4.24;70.31;101388.98;1651716;86;21064;-67
2022/02/12 09:23:55;;;;;;;6.53;3.60;;;;;;;4.21;70.13;101397.30;1651920;86;21223;-67
2022/02/12 09:26:41;;;;;;;6.20;3.62;;;;;;;4.17;69.99;101406.13;1641946;87;21062;-67
2022/02/12 09:29:01;;;;;;;6.28;3.92;;;;;;;4.13;69.78;101406.22;1651935;85;21038;-68
2022/02/12 09:31:27;;;;;;;9.00;4.20;;;;;;;4.10;69.74;101412.39;1626725;88;21065;-68
2022/02/12 09:33:56;;;;;;;7.42;4.20;;;;;;;4.09;69.65;101419.52;1651855;86;21109;-68
2022/02/12 09:36:24;;;;;;;6.97;4.25;;;;;;;4.09;69.56;101422.66;1677822;84;21041;-68
2022/02/12 09:38:51;;;;;;;8.10;3.90;;;;;;;4.12;69.55;101420.96;1667861;86;21517;-68
2022/02/12 09:41:23;;;;;;;6.75;3.90;;;;;;;4.13;69.55;101417.30;1680459;85;21002;-68
2022/02/12 09:43:49;;;;;;;7.10;3.90;;;;;;;4.19;69.35;101425.78;1651736;86;21046;-67
2022/02/12 09:46:43;;;;;;;10.43;4.80;;;;;;;4.26;69.08;101429.80;1677969;85;21561;-67
2022/02/12 09:49:10;;;;;;;8.95;4.60;;;;;;;4.28;69.01;101426.43;1678017;85;20974;-67
2022/02/12 09:51:37;;;;;;;10.72;4.35;;;;;;;4.30;68.79;101435.81;1651556;87;21855;-67
2022/02/12 09:54:04;;;;;;;7.92;4.22;;;;;;;4.36;68.71;101434.23;1651384;87;21591;-67
2022/02/12 09:56:30;;;;;;;8.08;4.33;;;;;;;4.41;68.68;101439.26;1654890;85;21101;-66
2022/02/12 09:58:57;;;;;;;8.93;4.75;;;;;;;4.49;68.66;101439.59;1651550;87;21136;-68
2022/02/12 10:01:24;;;;;;;8.78;4.35;;;;;;;4.56;68.37;101441.77;1651481;87;21046;-68
2022/02/12 10:03:52;;;;;;;7.78;4.42;;;;;;;4.63;68.21;101444.45;1651652;86;21749;-68
2022/02/12 10:06:42;;;;;;;10.63;5.05;;;;;;;4.68;67.94;101452.63;1677882;85;21529;-67
2022/02/12 10:09:09;;;;;;;9.33;4.70;;;;;;;4.68;67.85;101444.19;1678196;85;21619;-67
2022/02/12 10:11:45;;;;;;;9.93;4.97;;;;;;;4.71;67.61;101444.30;1651504;87;21047;-67
2022/02/12 10:14:15;;;;;;;9.70;5.20;;;;;;;4.73;67.53;101451.52;1677937;85;21820;-67
2022/02/12 10:17:03;;;;;;;6.35;4.20;;;;;;;4.75;67.28;101467.22;1677498;85;21454;-67
2022/02/12 10:19:43;;;;;;;7.85;4.87;;;;;;;4.76;67.25;101468.34;1632108;86;21561;-68
2022/02/12 10:22:19;;;;;;;8.23;5.12;;;;;;;4.76;67.08;101470.17;1651641;86;21038;-67
2022/02/12 10:25:03;;;;;;;10.40;4.40;;;;;;;4.74;66.90;101470.38;1654033;86;20994;-67
2022/02/12 10:27:27;;;;;;;8.83;4.40;;;;;;;4.73;66.83;101470.56;1651968;86;21037;-68
2022/02/12 10:29:55;;;;;;;9.68;5.10;;;;;;;4.70;66.71;101493.77;1654382;86;21134;-68
2022/02/12 10:32:23;;;;;;;9.00;4.92;;;;;;;4.68;66.80;101491.00;1627704;86;21106;-68
2022/02/12 10:34:51;;;;;;;10.72;4.90;;;;;;;4.68;66.90;101492.33;1679866;84;21095;-67
2022/02/12 10:37:24;;;;;;;8.93;4.70;;;;;;;4.68;66.96;101493.14;1678426;84;21536;-68
2022/02/12 10:40:01;;;;;;;7.17;3.87;;;;;;;4.71;67.13;101491.94;1681854;85;21481;-68
2022/02/12 10:42:30;;;;;;;7.40;3.92;;;;;;;4.72;67.21;101502.83;1681480;85;21166;-68
2022/02/12 10:44:58;;;;;;;7.95;4.08;;;;;;;4.74;67.09;101504.78;1676708;85;21064;-68
2022/02/12 10:47:25;;;;;;;9.27;4.70;;;;;;;4.78;66.94;101516.61;1551949;80;9999844;-67
2022/02/12 10:49:52;;;;;;;9.23;4.17;;;;;;;4.80;66.75;101511.92;1674961;84;21658;-67
2022/02/12 10:52:20;;;;;;;8.60;4.22;;;;;;;4.84;66.69;101507.08;1661305;84;21209;-67
2022/02/12 10:54:49;;;;;;;6.92;3.40;;;;;;;4.89;66.42;101505.45;1674924;84;21093;-68
2022/02/12 10:57:18;;;;;;;6.75;2.67;;;;;;;4.97;65.70;101511.59;1667964;85;21104;-68
2022/02/12 10:59:45;;;;;;;5.78;2.75;;;;;;;5.00;64.47;101520.47;1679419;84;21069;-67
2022/02/12 11:02:18;;;;;;;4.03;2.30;;;;;;;5.02;63.64;101521.11;1666365;84;20990;-68
2022/02/12 11:04:47;;;;;;;4.83;2.20;;;;;;;5.01;63.23;101521.62;1701033;83;21840;-68
2022/02/12 11:07:16;;;;;;;7.47;2.70;;;;;;;5.01;62.92;101538.02;1639485;85;21108;-68
2022/02/12 11:09:44;;;;;;;5.92;2.20;;;;;;;4.97;62.70;101533.62;1678607;84;21089;-68
2022/02/12 11:12:13;;;;;;;7.70;2.60;;;;;;;4.91;62.94;101533.89;1669487;85;21072;-68
2022/02/12 11:14:43;;;;;;;5.78;2.12;;;;;;;4.89;63.20;101543.84;1665785;85;21658;-68
2022/02/12 11:17:22;;;;;;;4.50;2.30;;;;;;;4.89;62.51;101549.65;1623715;87;21142;-68
2022/02/12 11:19:52;;;;;;;6.03;2.40;;;;;;;4.88;62.18;101551.48;1676419;85;21053;-67
2022/02/12 11:22:19;;;;;;;6.08;2.40;;;;;;;4.86;62.00;101552.69;1679606;85;21068;-68
2022/02/12 11:24:48;;;;;;;4.83;2.50;;;;;;;4.83;61.90;101567.62;1679635;84;21116;-67
2022/02/12 11:27:24;;;;;;;6.83;2.37;;;;;;;4.79;62.03;101566.39;1651259;85;21553;-68
2022/02/12 11:29:54;;;;;;;3.92;2.20;;;;;;;4.75;61.99;101565.15;1656108;85;21877;-68
2022/02/12 11:32:26;;;;;;;6.08;2.00;;;;;;;4.68;61.38;101556.66;1679772;85;21045;-67
2022/02/12 11:35:10;;;;;;;7.12;2.67;;;;;;;4.67;60.82;101566.09;1651065;86;21120;-68
2022/02/12 11:37:42;;;;;;;5.95;2.58;;;;;;;4.67;60.60;101565.61;1675942;85;21030;-69
2022/02/12 11:40:28;;;;;;;5.30;2.15;;;;;;;4.69;60.43;101569.37;1651000;86;21549;-68
2022/02/12 11:42:58;;;;;;;6.85;2.20;;;;;;;4.69;60.10;101594.52;1678083;84;21158;-68
2022/02/12 11:45:48;;;;;;;5.12;2.65;;;;;;;4.69;60.09;101585.25;1683545;84;21569;-68
2022/02/12 11:48:29;;;;;;;5.83;2.52;;;;;;;4.73;60.36;101579.06;1650745;85;21047;-67